createdAt,value
2022-09-01T00:00:03.677Z,99.90
2022-09-01T00:02:35.216Z,99.90
2022-09-01T00:05:04.846Z,99.90
2022-09-01T00:07:35.428Z,99.90
2022-09-01T00:10:08.978Z,99.90
2022-09-01T00:12:40.094Z,99.90
2022-09-01T00:15:13.022Z,99.90
2022-09-01T00:17:41.827Z,99.90
2022-09-01T00:20:11.438Z,99.90
2022-09-01T00:22:40.262Z,99.90
2022-09-01T00:25:10.265Z,99.90
2022-09-01T00:27:40.783Z,99.90
2022-09-01T00:30:10.889Z,99.90
2022-09-01T00:32:39.641Z,99.90
2022-09-01T00:35:09.483Z,99.90
2022-09-01T00:37:38.342Z,99.90
2022-09-01T00:40:08.616Z,99.90
2022-09-01T00:42:37.858Z,99.90
2022-09-01T00:45:11.470Z,99.90
2022-09-01T00:47:41.475Z,99.90
2022-09-01T00:50:11.698Z,99.90
2022-09-01T00:52:44.206Z,99.90
2022-09-01T00:55:17.366Z,99.90
2022-09-01T00:57:47.742Z,99.90
2022-09-01T01:00:21.823Z,99.90
2022-09-01T01:02:56.301Z,99.90
2022-09-01T01:05:28.071Z,99.90
2022-09-01T01:07:57.771Z,99.90
2022-09-01T01:10:27.332Z,99.90
2022-09-01T01:12:56.339Z,99.90
2022-09-01T01:15:27.044Z,99.90
2022-09-01T01:17:55.876Z,99.90
2022-09-01T01:20:49.951Z,99.90
2022-09-01T01:23:24.750Z,99.90
2022-09-01T01:25:58.582Z,99.90
2022-09-01T01:28:32.532Z,99.90
2022-09-01T01:31:11.987Z,99.90
2022-09-01T01:33:44.625Z,99.90
2022-09-01T01:36:17.095Z,99.90
2022-09-01T01:38:49.661Z,99.90
2022-09-01T01:41:22.037Z,99.90
2022-09-01T01:43:51.319Z,99.90
2022-09-01T01:46:21.888Z,99.90
2022-09-01T01:48:52.537Z,99.90
2022-09-01T01:51:25.102Z,99.90
2022-09-01T01:53:55.332Z,99.90
2022-09-01T01:56:26.465Z,99.90
2022-09-01T01:58:57.767Z,99.90
2022-09-01T02:01:32.270Z,99.90
2022-09-01T02:04:04.344Z,99.90
2022-09-01T02:06:36.985Z,99.90
2022-09-01T02:09:07.052Z,99.90
2022-09-01T02:11:37.974Z,99.90
2022-09-01T02:14:09.473Z,99.90
2022-09-01T02:16:38.805Z,99.90
2022-09-01T02:19:10.052Z,99.90
2022-09-01T02:21:45.090Z,99.90
2022-09-01T02:24:14.080Z,99.90
2022-09-01T02:26:48.618Z,99.90
2022-09-01T02:29:22.070Z,99.90
2022-09-01T02:31:53.694Z,99.90
2022-09-01T02:34:24.622Z,99.90
2022-09-01T02:36:57.019Z,99.90
2022-09-01T02:39:30.028Z,99.90
2022-09-01T02:42:01.647Z,99.90
2022-09-01T02:44:32.927Z,99.90
2022-09-01T02:47:05.609Z,99.90
2022-09-01T02:49:36.155Z,99.90
2022-09-01T02:52:06.254Z,99.90
2022-09-01T02:54:36.442Z,99.90
2022-09-01T02:57:09.151Z,99.90
2022-09-01T02:59:43.117Z,99.90
2022-09-01T03:02:12.764Z,99.90
2022-09-01T03:04:41.725Z,99.90
2022-09-01T03:07:13.902Z,99.90
2022-09-01T03:09:43.776Z,99.90
2022-09-01T03:12:14.588Z,99.90
2022-09-01T03:14:43.239Z,99.90
2022-09-01T03:17:12.077Z,99.90
2022-09-01T03:19:45.283Z,99.90
2022-09-01T03:22:14.349Z,99.90
2022-09-01T03:24:43.623Z,99.90
2022-09-01T03:27:14.068Z,99.90
2022-09-01T03:29:43.111Z,99.90
2022-09-01T03:32:12.042Z,99.90
2022-09-01T03:34:41.541Z,99.90
2022-09-01T03:37:11.015Z,99.90
2022-09-01T03:39:40.278Z,99.90
2022-09-01T03:42:12.301Z,99.90
2022-09-01T03:44:44.330Z,99.90
2022-09-01T03:47:17.071Z,99.90
2022-09-01T03:49:49.246Z,99.90
2022-09-01T03:52:18.759Z,99.90
2022-09-01T03:54:48.072Z,99.90
2022-09-01T03:57:16.766Z,99.90
2022-09-01T03:59:47.144Z,99.90
2022-09-01T04:02:17.292Z,99.90
2022-09-01T04:04:46.169Z,99.90
2022-09-01T04:07:19.072Z,99.90
2022-09-01T04:09:48.471Z,99.90
2022-09-01T04:12:17.470Z,99.90
2022-09-01T04:14:52.884Z,99.90
2022-09-01T04:17:39.369Z,99.90
2022-09-01T04:20:09.567Z,99.90
2022-09-01T04:22:39.293Z,99.90
2022-09-01T04:25:09.076Z,99.90
2022-09-01T04:27:40.530Z,99.90
2022-09-01T04:30:12.510Z,99.90
2022-09-01T04:32:46.977Z,99.90
2022-09-01T04:35:17.289Z,99.90
2022-09-01T04:37:48.543Z,99.90
2022-09-01T04:40:18.795Z,99.90
2022-09-01T04:42:48.367Z,99.90
2022-09-01T04:45:25.301Z,99.90
2022-09-01T04:47:55.482Z,99.90
2022-09-01T04:50:26.211Z,99.90
2022-09-01T04:53:17.397Z,99.90
2022-09-01T04:55:53.846Z,99.90
2022-09-01T04:58:24.678Z,99.90
2022-09-01T05:00:56.100Z,99.90
2022-09-01T05:03:25.889Z,99.90
2022-09-01T05:06:13.678Z,99.90
2022-09-01T05:08:47.892Z,99.90
2022-09-01T05:11:27.849Z,99.90
2022-09-01T05:14:06.725Z,99.90
2022-09-01T05:16:37.866Z,99.90
2022-09-01T05:19:06.525Z,99.90
2022-09-01T05:21:40.213Z,99.90
2022-09-01T05:24:10.781Z,99.90
2022-09-01T05:26:40.981Z,99.90
2022-09-01T05:29:13.364Z,99.90
2022-09-01T05:31:49.576Z,99.90
2022-09-01T05:34:27.069Z,99.90
2022-09-01T05:36:59.254Z,99.90
2022-09-01T05:39:28.855Z,99.90
2022-09-01T05:41:59.902Z,99.90
2022-09-01T05:44:28.519Z,99.90
2022-09-01T05:47:00.257Z,99.90
2022-09-01T05:49:33.124Z,99.90
2022-09-01T05:52:05.279Z,99.90
2022-09-01T05:54:34.903Z,99.90
2022-09-01T05:57:30.337Z,99.90
2022-09-01T05:59:54.725Z,99.90
2022-09-01T06:02:30.222Z,99.90
2022-09-01T06:05:00.356Z,99.90
2022-09-01T06:07:38.055Z,99.90
2022-09-01T06:10:08.774Z,99.90
2022-09-01T06:12:37.824Z,99.90
2022-09-01T06:15:15.891Z,99.90
2022-09-01T06:17:49.066Z,99.90
2022-09-01T06:20:19.096Z,99.90
2022-09-01T06:22:48.953Z,99.90
2022-09-01T06:25:18.659Z,99.90
2022-09-01T06:27:49.268Z,99.90
2022-09-01T06:30:23.715Z,99.90
2022-09-01T06:33:01.204Z,99.90
2022-09-01T06:35:30.697Z,99.90
2022-09-01T06:38:01.973Z,99.90
2022-09-01T06:40:42.363Z,99.90
2022-09-01T06:43:16.203Z,99.90
2022-09-01T06:45:54.607Z,99.90
2022-09-01T06:48:26.847Z,99.90
2022-09-01T06:51:18.351Z,99.90
2022-09-01T06:53:56.537Z,99.90
2022-09-01T06:56:32.237Z,99.90
2022-09-01T06:59:06.188Z,99.90
2022-09-01T07:01:36.163Z,99.90
2022-09-01T07:04:12.740Z,99.90
2022-09-01T07:07:00.464Z,99.90
2022-09-01T07:10:06.076Z,99.90
2022-09-01T07:18:30.816Z,99.90
2022-09-01T07:21:35.779Z,99.90
2022-09-01T07:24:13.214Z,99.90
2022-09-01T07:26:54.394Z,99.90
2022-09-01T07:29:26.269Z,99.90
2022-09-01T07:34:47.497Z,99.90
2022-09-01T07:43:44.857Z,99.90
2022-09-01T07:46:37.865Z,99.90
2022-09-01T07:52:02.166Z,99.90
2022-09-01T07:54:34.063Z,99.90
2022-09-01T07:57:03.051Z,99.90
2022-09-01T07:59:35.448Z,99.90
2022-09-01T08:02:18.346Z,99.90
2022-09-01T08:04:48.996Z,99.90
2022-09-01T08:07:19.562Z,99.90
2022-09-01T08:09:50.024Z,99.90
2022-09-01T08:12:19.001Z,99.90
2022-09-01T08:15:12.652Z,99.90
2022-09-01T08:17:57.800Z,99.90
2022-09-01T08:20:30.494Z,99.90
2022-09-01T08:23:11.251Z,99.90
2022-09-01T08:25:44.153Z,99.90
2022-09-01T08:28:13.980Z,99.90
2022-09-01T08:30:52.316Z,99.90
2022-09-01T08:33:23.118Z,98.70
2022-09-01T08:35:51.815Z,98.50
2022-09-01T08:38:21.215Z,97.10
2022-09-01T08:40:57.409Z,96.80
2022-09-01T08:43:54.452Z,96.50
2022-09-01T08:46:27.459Z,97.10
2022-09-01T08:52:16.033Z,95.70
2022-09-01T08:54:49.955Z,94.20
2022-09-01T08:57:24.279Z,92.40
2022-09-01T09:00:14.201Z,90.00
2022-09-01T09:02:52.952Z,88.80
2022-09-01T09:05:33.552Z,88.50
2022-09-01T09:08:33.253Z,87.40
2022-09-01T09:11:05.504Z,88.80
2022-09-01T09:13:48.906Z,81.50
2022-09-01T09:16:22.389Z,85.60
2022-09-01T09:18:57.842Z,85.30
2022-09-01T09:21:30.826Z,81.60
2022-09-01T09:24:07.987Z,84.00
2022-09-01T09:26:44.795Z,79.40
2022-09-01T09:29:15.143Z,82.90
2022-09-01T09:31:50.354Z,82.60
2022-09-01T09:34:33.488Z,81.90
2022-09-01T09:37:22.294Z,77.80
2022-09-01T09:40:11.049Z,75.70
2022-09-01T09:42:41.321Z,75.80
2022-09-01T09:45:24.900Z,76.80
2022-09-01T09:47:55.351Z,77.70
2022-09-01T09:50:27.209Z,73.30
2022-09-01T09:53:14.215Z,73.20
2022-09-01T09:55:58.711Z,73.00
2022-09-01T09:58:30.590Z,69.80
2022-09-01T10:01:08.267Z,71.20
2022-09-01T10:03:42.546Z,69.40
2022-09-01T10:06:14.130Z,73.40
2022-09-01T10:08:48.159Z,69.20
2022-09-01T10:11:35.442Z,70.70
2022-09-01T10:14:08.463Z,69.40
2022-09-01T10:16:42.536Z,68.20
2022-09-01T10:19:16.358Z,70.60
2022-09-01T10:21:46.566Z,65.40
2022-09-01T10:24:22.356Z,64.40
2022-09-01T10:26:58.026Z,69.80
2022-09-01T10:29:35.123Z,67.80
2022-09-01T10:32:31.894Z,69.00
2022-09-01T10:35:06.739Z,68.90
2022-09-01T10:37:35.656Z,66.40
2022-09-01T10:40:20.826Z,69.30
2022-09-01T10:42:53.919Z,69.60
2022-09-01T10:45:32.916Z,67.00
2022-09-01T10:48:32.073Z,66.60
2022-09-01T10:51:50.604Z,67.30
2022-09-01T10:55:01.231Z,68.20
2022-09-01T10:57:55.192Z,65.50
2022-09-01T11:03:56.205Z,67.70
2022-09-01T11:07:13.085Z,65.50
2022-09-01T11:09:43.511Z,64.20
2022-09-01T11:12:40.137Z,64.00
2022-09-01T11:15:39.162Z,63.50
2022-09-01T11:18:17.282Z,66.40
2022-09-01T11:20:50.640Z,63.30
2022-09-01T11:23:25.364Z,64.00
2022-09-01T11:28:44.142Z,62.20
2022-09-01T11:31:29.906Z,61.30
2022-09-01T11:34:06.792Z,62.00
2022-09-01T11:36:38.931Z,63.10
2022-09-01T11:39:15.910Z,64.50
2022-09-01T11:41:57.405Z,62.20
2022-09-01T11:44:34.971Z,62.10
2022-09-01T11:47:10.748Z,63.60
2022-09-01T11:49:52.184Z,64.40
2022-09-01T11:52:25.625Z,68.90
2022-09-01T11:54:54.928Z,72.20
2022-09-01T11:57:27.485Z,71.60
2022-09-01T11:59:56.905Z,72.10
2022-09-01T12:02:28.047Z,69.70
2022-09-01T12:04:57.719Z,69.80
2022-09-01T12:07:39.579Z,70.70
2022-09-01T12:10:18.508Z,69.90
2022-09-01T12:12:47.423Z,69.00
2022-09-01T12:15:22.783Z,69.10
2022-09-01T12:17:51.828Z,70.10
2022-09-01T12:20:28.967Z,69.40
2022-09-01T12:23:02.391Z,69.40
2022-09-01T12:25:33.526Z,66.30
2022-09-01T12:28:04.142Z,65.70
2022-09-01T12:30:35.451Z,69.80
2022-09-01T12:36:30.785Z,65.80
2022-09-01T12:39:21.708Z,68.10
2022-09-01T12:42:05.000Z,66.00
2022-09-01T12:44:36.127Z,65.90
2022-09-01T12:47:07.859Z,65.20
2022-09-01T12:49:47.922Z,63.60
2022-09-01T12:52:26.762Z,63.80
2022-09-01T12:55:47.471Z,64.00
2022-09-01T12:58:07.083Z,61.60
2022-09-01T13:00:37.460Z,61.40
2022-09-01T13:03:14.537Z,54.50
2022-09-01T13:05:44.040Z,57.80
2022-09-01T13:08:15.429Z,59.80
2022-09-01T13:10:47.954Z,58.90
2022-09-01T13:13:17.749Z,60.40
2022-09-01T13:15:48.411Z,59.50
2022-09-01T13:18:18.294Z,60.80
2022-09-01T13:20:48.022Z,60.00
2022-09-01T13:23:17.449Z,59.90
2022-09-01T13:25:47.593Z,60.00
2022-09-01T13:28:18.460Z,60.90
2022-09-01T13:36:45.307Z,61.00
2022-09-01T13:39:16.516Z,60.00
2022-09-01T13:41:47.197Z,60.00
2022-09-01T13:44:17.312Z,60.80
2022-09-01T13:47:28.523Z,62.50
2022-09-01T13:49:44.436Z,61.20
2022-09-01T13:52:24.233Z,64.40
2022-09-01T13:54:52.826Z,63.50
2022-09-01T13:57:22.667Z,64.10
2022-09-01T13:59:51.768Z,63.30
2022-09-01T14:02:20.431Z,65.00
2022-09-01T14:04:49.063Z,63.70
2022-09-01T14:07:18.950Z,62.90
2022-09-01T14:09:47.593Z,63.70
2022-09-01T14:12:16.148Z,64.50
2022-09-01T14:17:35.500Z,64.20
2022-09-01T14:20:06.270Z,63.30
2022-09-01T14:22:38.361Z,63.50
2022-09-01T14:25:08.564Z,63.50
2022-09-01T14:27:38.304Z,62.50
2022-09-01T14:30:12.421Z,64.00
2022-09-01T14:32:41.260Z,65.30
2022-09-01T14:35:10.822Z,65.20
2022-09-01T14:37:39.863Z,66.20
2022-09-01T14:40:14.865Z,64.10
2022-09-01T14:42:49.561Z,65.50
2022-09-01T14:45:21.903Z,68.00
2022-09-01T14:47:53.824Z,67.30
2022-09-01T14:50:24.393Z,68.40
2022-09-01T14:52:55.480Z,69.20
2022-09-01T14:55:25.682Z,68.60
2022-09-01T14:57:55.080Z,69.60
2022-09-01T15:00:26.576Z,70.40
2022-09-01T15:02:56.460Z,71.40
2022-09-01T15:05:26.888Z,72.50
2022-09-01T15:07:55.999Z,70.40
2022-09-01T15:10:27.248Z,71.40
2022-09-01T15:12:57.207Z,70.40
2022-09-01T15:15:28.329Z,70.10
2022-09-01T15:17:57.839Z,71.50
2022-09-01T15:20:45.383Z,69.90
2022-09-01T15:23:15.044Z,66.40
2022-09-01T15:25:43.615Z,67.70
2022-09-01T15:28:13.377Z,68.90
2022-09-01T15:30:45.557Z,68.70
2022-09-01T15:33:16.225Z,69.90
2022-09-01T15:35:45.776Z,71.20
2022-09-01T15:38:16.230Z,71.70
2022-09-01T15:40:55.359Z,70.50
2022-09-01T15:43:28.104Z,70.40
2022-09-01T15:45:59.732Z,71.50
2022-09-01T15:48:29.563Z,70.50
2022-09-01T15:51:17.611Z,70.70
2022-09-01T15:53:46.196Z,70.10
2022-09-01T15:56:14.747Z,71.60
2022-09-01T15:59:00.121Z,73.10
2022-09-01T16:01:33.126Z,74.50
2022-09-01T16:04:02.200Z,73.70
2022-09-01T16:06:31.406Z,75.00
2022-09-01T16:09:00.091Z,75.80
2022-09-01T16:11:28.782Z,76.30
2022-09-01T16:13:58.840Z,75.50
2022-09-01T16:16:40.868Z,76.00
2022-09-01T16:19:22.999Z,75.00
2022-09-01T16:21:57.943Z,76.50
2022-09-01T16:24:27.036Z,76.80
2022-09-01T16:26:58.464Z,77.90
2022-09-01T16:29:35.932Z,79.10
2022-09-01T16:32:06.953Z,77.40
2022-09-01T16:34:35.743Z,78.50
2022-09-01T16:37:12.298Z,80.30
2022-09-01T16:39:47.221Z,80.10
2022-09-01T16:42:27.984Z,80.90
2022-09-01T16:45:07.105Z,81.50
2022-09-01T16:47:54.648Z,82.80
2022-09-01T16:50:32.722Z,84.40
2022-09-01T16:53:14.111Z,84.20
2022-09-01T16:55:57.012Z,84.70
2022-09-01T16:58:31.909Z,84.40
2022-09-01T17:01:13.222Z,85.30
2022-09-01T17:03:57.568Z,87.30
2022-09-01T17:06:32.305Z,87.60
2022-09-01T17:09:10.515Z,88.60
2022-09-01T17:11:49.119Z,89.00
2022-09-01T17:14:27.817Z,90.00
2022-09-01T17:17:05.864Z,89.70
2022-09-01T17:19:39.003Z,90.10
2022-09-01T17:22:11.961Z,90.20
2022-09-01T17:24:42.955Z,90.60
2022-09-01T17:27:19.019Z,91.20
2022-09-01T17:29:51.815Z,91.80
2022-09-01T17:32:48.113Z,92.90
2022-09-01T17:35:26.228Z,94.60
2022-09-01T17:38:03.925Z,95.70
2022-09-01T17:40:48.503Z,97.20
2022-09-01T17:43:26.132Z,98.60
2022-09-01T17:46:04.416Z,99.90
2022-09-01T17:48:43.851Z,99.90
2022-09-01T17:51:26.376Z,99.90
2022-09-01T17:54:07.951Z,99.90
2022-09-01T17:56:46.059Z,99.90
2022-09-01T17:59:19.338Z,99.90
2022-09-01T18:02:02.568Z,99.90
2022-09-01T18:04:53.558Z,99.90
2022-09-01T18:07:40.062Z,99.90
2022-09-01T18:10:15.335Z,99.90
2022-09-01T18:12:46.340Z,99.90
2022-09-01T18:15:17.812Z,99.90
2022-09-01T18:17:51.717Z,99.90
2022-09-01T18:20:26.091Z,99.90
2022-09-01T18:23:05.959Z,99.90
2022-09-01T18:25:39.471Z,99.90
2022-09-01T18:28:08.535Z,99.90
2022-09-01T18:30:53.664Z,99.90
2022-09-01T18:33:28.224Z,99.90
2022-09-01T18:36:08.648Z,99.90
2022-09-01T18:38:51.404Z,99.90
2022-09-01T18:41:52.410Z,99.90
2022-09-01T18:44:33.056Z,99.90
2022-09-01T18:47:05.113Z,99.90
2022-09-01T18:49:45.666Z,99.90
2022-09-01T18:52:25.020Z,99.90
2022-09-01T18:55:04.769Z,99.90
2022-09-01T18:57:38.761Z,99.90
2022-09-01T19:00:18.658Z,99.90
2022-09-01T19:03:00.043Z,99.90
2022-09-01T19:05:45.056Z,99.90
2022-09-01T19:08:22.657Z,99.90
2022-09-01T19:11:00.274Z,99.90
2022-09-01T19:13:44.307Z,99.90
2022-09-01T19:16:24.667Z,99.90
2022-09-01T19:19:01.517Z,99.90
2022-09-01T19:21:32.663Z,99.90
2022-09-01T19:24:07.568Z,99.90
2022-09-01T19:26:43.986Z,99.90
2022-09-01T19:29:17.772Z,99.90
2022-09-01T19:31:49.371Z,99.90
2022-09-01T19:34:25.493Z,99.90
2022-09-01T19:36:57.025Z,99.90
2022-09-01T19:39:31.655Z,99.90
2022-09-01T19:42:08.648Z,99.90
2022-09-01T19:44:44.100Z,99.90
2022-09-01T19:47:18.541Z,99.90
2022-09-01T19:49:54.686Z,99.90
2022-09-01T19:52:32.344Z,99.90
2022-09-01T19:55:06.820Z,99.90
2022-09-01T19:57:44.085Z,99.90
2022-09-01T20:00:18.001Z,99.90
2022-09-01T20:02:52.629Z,99.90
2022-09-01T20:05:31.399Z,99.90
2022-09-01T20:08:03.840Z,99.90
2022-09-01T20:10:56.438Z,99.90
2022-09-01T20:13:39.636Z,99.90
2022-09-01T20:16:18.885Z,99.90
2022-09-01T20:18:51.389Z,99.90
2022-09-01T20:21:22.466Z,99.90
2022-09-01T20:23:56.987Z,99.90
2022-09-01T20:26:32.787Z,99.90
2022-09-01T20:29:11.947Z,99.90
2022-09-01T20:31:45.526Z,99.90
2022-09-01T20:34:19.880Z,99.90
2022-09-01T20:36:55.024Z,99.90
2022-09-01T20:39:50.498Z,99.90
2022-09-01T20:42:24.636Z,99.90
2022-09-01T20:44:58.694Z,99.90
2022-09-01T20:47:32.264Z,99.90
2022-09-01T20:50:02.934Z,99.90
2022-09-01T20:52:43.916Z,99.90
2022-09-01T20:55:19.526Z,99.90
2022-09-01T20:57:56.417Z,99.90
2022-09-01T21:00:29.185Z,99.90
2022-09-01T21:03:04.426Z,99.90
2022-09-01T21:05:41.904Z,99.90
2022-09-01T21:08:30.870Z,99.90
2022-09-01T21:11:17.638Z,99.90
2022-09-01T21:13:57.578Z,99.90
2022-09-01T21:16:39.085Z,99.90
2022-09-01T21:19:15.615Z,99.90
2022-09-01T21:21:50.362Z,99.90
2022-09-01T21:24:19.523Z,99.90
2022-09-01T21:26:49.374Z,99.90
2022-09-01T21:29:31.248Z,99.90
2022-09-01T21:32:01.914Z,99.90
2022-09-01T21:34:30.887Z,99.90
2022-09-01T21:36:59.782Z,99.90
2022-09-01T21:39:28.411Z,99.90
2022-09-01T21:41:58.391Z,99.90
2022-09-01T21:44:27.543Z,99.90
2022-09-01T21:46:57.267Z,99.90
2022-09-01T21:49:27.913Z,99.90
2022-09-01T21:51:59.259Z,99.90
2022-09-01T21:54:28.018Z,99.90
2022-09-01T21:56:56.854Z,99.90
2022-09-01T21:59:25.901Z,99.90
2022-09-01T22:01:54.898Z,99.90
2022-09-01T22:04:24.461Z,99.90
2022-09-01T22:06:54.920Z,99.90
2022-09-01T22:09:24.246Z,99.90
2022-09-01T22:11:53.192Z,99.90
2022-09-01T22:14:22.467Z,99.90
2022-09-01T22:16:51.862Z,99.90
2022-09-01T22:19:20.750Z,99.90
2022-09-01T22:21:49.487Z,99.90
2022-09-01T22:24:20.124Z,99.90
2022-09-01T22:26:49.956Z,99.90
2022-09-01T22:29:19.065Z,99.90
2022-09-01T22:31:47.696Z,99.90
2022-09-01T22:34:16.249Z,99.90
2022-09-01T22:36:47.206Z,99.90
2022-09-01T22:39:17.189Z,99.90
2022-09-01T22:41:47.830Z,99.90
2022-09-01T22:44:16.677Z,99.90
2022-09-01T22:46:46.088Z,99.90
2022-09-01T22:49:15.131Z,99.90
2022-09-01T22:51:44.913Z,99.90
2022-09-01T22:54:15.209Z,99.90
2022-09-01T22:56:45.284Z,99.90
2022-09-01T22:59:16.604Z,99.90
2022-09-01T23:01:47.633Z,99.90
2022-09-01T23:04:17.717Z,99.90
2022-09-01T23:06:50.826Z,99.90
2022-09-01T23:09:21.215Z,99.90
2022-09-01T23:11:50.534Z,99.90
2022-09-01T23:14:21.129Z,99.90
2022-09-01T23:16:51.877Z,99.90
2022-09-01T23:19:21.659Z,99.90
2022-09-01T23:21:52.339Z,99.90
2022-09-01T23:24:21.902Z,99.90
2022-09-01T23:26:50.679Z,99.90
2022-09-01T23:29:21.175Z,99.90
2022-09-01T23:31:50.091Z,99.90
2022-09-01T23:34:19.551Z,99.90
2022-09-01T23:36:48.691Z,99.90
2022-09-01T23:39:17.635Z,99.90
2022-09-01T23:41:47.649Z,99.90
2022-09-01T23:44:16.639Z,99.90
2022-09-01T23:46:48.161Z,99.90
2022-09-01T23:49:18.423Z,99.90
2022-09-01T23:51:48.797Z,99.90
2022-09-01T23:54:17.831Z,99.90
2022-09-01T23:56:46.870Z,99.90
2022-09-01T23:59:15.871Z,99.90
